createdAt,value
2019-05-16T00:01:50.227Z,5.80
2019-05-16T00:04:21.200Z,5.80
2019-05-16T00:06:52.180Z,5.80
2019-05-16T00:09:23.167Z,5.70
2019-05-16T00:11:54.111Z,5.70
2019-05-16T00:14:25.084Z,5.80
2019-05-16T00:16:56.037Z,5.80
2019-05-16T00:19:28.772Z,5.80
2019-05-16T00:21:59.651Z,5.80
2019-05-16T00:24:30.648Z,5.90
2019-05-16T00:27:01.600Z,5.90
2019-05-16T00:29:32.572Z,5.80
2019-05-16T00:32:03.545Z,5.80
2019-05-16T00:34:34.516Z,5.90
2019-05-16T00:37:05.512Z,5.90
2019-05-16T00:39:38.662Z,5.90
2019-05-16T00:42:09.181Z,5.90
2019-05-16T00:44:40.123Z,5.90
2019-05-16T00:47:11.105Z,5.90
2019-05-16T00:49:42.045Z,5.80
2019-05-16T00:52:13.097Z,5.80
2019-05-16T00:54:44.040Z,5.80
2019-05-16T00:57:15.709Z,5.70
2019-05-16T00:59:48.563Z,5.70
2019-05-16T01:02:20.740Z,5.60
2019-05-16T01:04:51.741Z,5.60
2019-05-16T01:07:22.713Z,5.60
2019-05-16T01:09:53.652Z,5.50
2019-05-16T01:12:24.623Z,5.90
2019-05-16T01:14:55.649Z,5.90
2019-05-16T01:17:28.313Z,5.90
2019-05-16T01:19:59.459Z,5.90
2019-05-16T01:22:30.506Z,5.80
2019-05-16T01:25:01.458Z,5.60
2019-05-16T01:27:32.496Z,5.80
2019-05-16T01:30:03.841Z,5.70
2019-05-16T01:32:34.820Z,5.60
2019-05-16T01:35:08.348Z,5.60
2019-05-16T01:37:39.541Z,5.60
2019-05-16T01:40:10.803Z,5.50
2019-05-16T01:42:41.783Z,5.50
2019-05-16T01:45:13.024Z,5.60
2019-05-16T01:47:43.995Z,5.50
2019-05-16T01:50:18.078Z,5.40
2019-05-16T01:52:49.310Z,5.40
2019-05-16T01:55:20.252Z,5.40
2019-05-16T01:57:51.235Z,5.40
2019-05-16T02:00:25.524Z,5.40
2019-05-16T02:02:55.103Z,5.50
2019-05-16T02:05:27.956Z,5.50
2019-05-16T02:07:58.740Z,5.50
2019-05-16T02:10:29.762Z,5.40
2019-05-16T02:13:00.700Z,5.40
2019-05-16T02:15:31.752Z,5.40
2019-05-16T02:18:02.793Z,5.30
2019-05-16T02:20:33.775Z,5.20
2019-05-16T02:23:04.748Z,5.20
2019-05-16T02:25:38.228Z,5.20
2019-05-16T02:28:08.398Z,5.10
2019-05-16T02:30:42.228Z,5.10
2019-05-16T02:33:12.047Z,5.30
2019-05-16T02:35:43.016Z,5.30
2019-05-16T02:38:13.993Z,5.40
2019-05-16T02:40:44.943Z,5.40
2019-05-16T02:43:15.991Z,5.40
2019-05-16T02:45:46.939Z,5.40
2019-05-16T02:48:20.941Z,5.30
2019-05-16T02:50:51.475Z,5.30
2019-05-16T02:53:23.114Z,5.40
2019-05-16T02:55:54.061Z,5.30
2019-05-16T02:58:25.141Z,5.20
2019-05-16T03:00:56.078Z,5.10
2019-05-16T03:03:27.238Z,5.20
2019-05-16T03:06:01.084Z,5.00
2019-05-16T03:08:32.756Z,4.80
2019-05-16T03:11:03.899Z,4.70
2019-05-16T03:13:36.590Z,4.60
2019-05-16T03:16:12.128Z,4.50
2019-05-16T03:18:43.881Z,4.40
2019-05-16T03:21:14.871Z,4.50
2019-05-16T03:23:45.844Z,4.50
2019-05-16T03:26:16.788Z,4.40
2019-05-16T03:28:47.767Z,4.60
2019-05-16T03:31:23.829Z,4.60
2019-05-16T03:33:58.718Z,4.60
2019-05-16T03:36:25.551Z,4.50
2019-05-16T03:38:56.837Z,4.60
2019-05-16T03:41:30.683Z,4.60
2019-05-16T03:44:01.522Z,4.70
2019-05-16T03:46:32.597Z,4.60
2019-05-16T03:49:03.585Z,4.70
2019-05-16T03:51:34.629Z,4.70
2019-05-16T03:54:05.637Z,4.70
2019-05-16T03:56:36.680Z,5.00
2019-05-16T03:59:10.724Z,5.00
2019-05-16T04:01:41.024Z,5.10
2019-05-16T04:04:12.377Z,5.10
2019-05-16T04:06:43.589Z,5.20
2019-05-16T04:09:14.534Z,5.20
2019-05-16T04:11:45.506Z,5.20
2019-05-16T04:14:16.450Z,5.30
2019-05-16T04:16:50.893Z,5.30
2019-05-16T04:19:21.235Z,5.40
2019-05-16T04:21:52.492Z,5.40
2019-05-16T04:24:23.432Z,5.30
2019-05-16T04:26:54.409Z,5.30
2019-05-16T04:29:25.353Z,5.30
2019-05-16T04:31:56.405Z,5.40
2019-05-16T04:34:27.366Z,5.50
2019-05-16T04:37:01.126Z,5.50
2019-05-16T04:39:32.080Z,5.60
2019-05-16T04:42:03.292Z,5.80
2019-05-16T04:44:34.307Z,5.80
2019-05-16T04:47:05.278Z,5.80
2019-05-16T04:49:36.218Z,6.00
2019-05-16T04:52:07.204Z,6.20
2019-05-16T04:54:41.476Z,6.30
2019-05-16T04:57:11.804Z,6.40
2019-05-16T04:59:44.199Z,6.40
2019-05-16T05:02:15.175Z,6.60
2019-05-16T05:04:46.107Z,6.80
2019-05-16T05:07:20.366Z,6.80
2019-05-16T05:09:51.385Z,6.90
2019-05-16T05:12:22.601Z,6.80
2019-05-16T05:14:53.572Z,6.90
2019-05-16T05:17:24.587Z,7.00
2019-05-16T05:19:56.562Z,6.80
2019-05-16T05:22:27.505Z,7.10
2019-05-16T05:25:00.155Z,7.10
2019-05-16T05:27:31.302Z,7.10
2019-05-16T05:30:02.355Z,7.10
2019-05-16T05:32:33.283Z,7.20
2019-05-16T05:35:05.860Z,7.30
2019-05-16T05:37:36.856Z,7.20
2019-05-16T05:40:10.553Z,7.10
2019-05-16T05:42:41.993Z,7.30
2019-05-16T05:45:13.427Z,7.50
2019-05-16T05:47:44.446Z,7.50
2019-05-16T05:50:15.652Z,7.50
2019-05-16T05:52:46.597Z,7.50
2019-05-16T05:55:19.817Z,7.60
2019-05-16T05:57:50.783Z,7.80
2019-05-16T06:00:21.884Z,7.80
2019-05-16T06:02:52.810Z,7.80
2019-05-16T06:05:23.790Z,7.70
2019-05-16T06:07:54.760Z,7.60
2019-05-16T06:10:25.712Z,7.60
2019-05-16T06:12:56.685Z,7.70
2019-05-16T06:15:27.825Z,7.70
2019-05-16T06:18:00.259Z,7.90
2019-05-16T06:20:31.423Z,8.20
2019-05-16T06:23:02.398Z,8.40
2019-05-16T06:25:33.339Z,8.50
2019-05-16T06:28:04.308Z,8.80
2019-05-16T06:30:35.266Z,8.70
2019-05-16T06:33:06.242Z,8.90
2019-05-16T06:35:37.182Z,8.80
2019-05-16T06:38:09.963Z,8.90
2019-05-16T06:40:40.804Z,9.00
2019-05-16T06:43:12.250Z,9.10
2019-05-16T06:45:43.207Z,9.20
2019-05-16T06:48:14.253Z,9.20
2019-05-16T06:50:45.827Z,9.20
2019-05-16T06:53:16.796Z,9.30
2019-05-16T06:55:49.780Z,9.40
2019-05-16T06:58:22.247Z,9.40
2019-05-16T07:00:53.105Z,9.30
2019-05-16T07:03:24.227Z,8.90
2019-05-16T07:05:55.188Z,9.10
2019-05-16T07:08:26.158Z,9.20
2019-05-16T07:10:57.102Z,9.50
2019-05-16T07:13:30.147Z,9.90
2019-05-16T07:16:00.771Z,10.00
2019-05-16T07:18:31.776Z,10.50
2019-05-16T07:21:02.823Z,10.20
2019-05-16T07:23:33.873Z,10.20
2019-05-16T07:26:04.818Z,10.60
2019-05-16T07:28:35.807Z,10.80
2019-05-16T07:31:17.592Z,11.10
2019-05-16T07:33:40.675Z,11.70
2019-05-16T07:36:11.780Z,12.20
2019-05-16T07:38:42.773Z,12.30
2019-05-16T07:41:14.048Z,12.40
2019-05-16T07:43:46.492Z,12.70
2019-05-16T07:46:17.438Z,12.80
2019-05-16T07:48:51.393Z,12.90
2019-05-16T07:51:21.097Z,12.70
2019-05-16T07:53:52.043Z,12.50
2019-05-16T07:56:23.041Z,12.50
2019-05-16T07:58:53.992Z,12.20
2019-05-16T08:01:24.977Z,11.90
2019-05-16T08:03:55.934Z,11.80
2019-05-16T08:06:30.537Z,12.20
2019-05-16T08:09:00.164Z,12.70
2019-05-16T08:11:31.421Z,12.50
2019-05-16T08:14:02.390Z,12.40
2019-05-16T08:16:33.365Z,12.40
2019-05-16T08:19:04.428Z,12.60
2019-05-16T08:21:35.553Z,12.70
2019-05-16T08:24:08.117Z,13.00
2019-05-16T08:26:42.931Z,13.60
2019-05-16T08:31:44.819Z,13.50
2019-05-16T08:34:15.801Z,13.60
2019-05-16T08:36:46.858Z,13.70
2019-05-16T08:39:17.835Z,13.80
2019-05-16T08:41:52.060Z,14.10
2019-05-16T08:44:21.742Z,14.30
2019-05-16T08:46:57.721Z,14.40
2019-05-16T08:49:25.623Z,14.00
2019-05-16T08:51:56.576Z,14.00
2019-05-16T08:54:31.531Z,14.10
2019-05-16T08:57:17.443Z,14.30
2019-05-16T09:02:05.702Z,14.70
2019-05-16T09:04:36.809Z,14.70
2019-05-16T09:07:07.819Z,15.00
2019-05-16T09:09:44.328Z,14.90
2019-05-16T09:10:34.528Z,13.90
2019-05-16T09:10:35.053Z,14.60
2019-05-16T09:12:11.477Z,14.80
2019-05-16T09:14:42.535Z,14.80
2019-05-16T09:17:13.568Z,14.70
2019-05-16T09:19:47.015Z,14.50
2019-05-16T09:22:18.055Z,14.60
2019-05-16T09:24:49.233Z,14.60
2019-05-16T09:27:20.177Z,14.40
2019-05-16T09:29:51.159Z,14.30
2019-05-16T09:32:22.104Z,14.10
2019-05-16T09:34:53.080Z,13.80
2019-05-16T09:37:26.580Z,13.70
2019-05-16T09:39:57.234Z,13.60
2019-05-16T09:42:28.519Z,13.40
2019-05-16T09:44:59.513Z,13.60
2019-05-16T09:47:30.557Z,13.90
2019-05-16T09:50:01.543Z,14.30
2019-05-16T09:52:32.484Z,14.70
2019-05-16T09:55:03.523Z,15.50
2019-05-16T09:57:37.313Z,15.90
2019-05-16T10:00:11.332Z,16.00
2019-05-16T10:02:42.383Z,16.00
2019-05-16T10:05:13.887Z,16.30
2019-05-16T10:07:47.028Z,17.00
2019-05-16T10:10:18.503Z,18.30
2019-05-16T10:12:49.468Z,18.90
2019-05-16T10:15:21.043Z,18.90
2019-05-16T10:17:52.841Z,18.40
2019-05-16T10:20:23.813Z,18.30
2019-05-16T10:22:57.699Z,18.60
2019-05-16T10:25:27.899Z,18.90
2019-05-16T10:27:58.942Z,19.50
2019-05-16T10:30:30.436Z,19.30
2019-05-16T10:33:01.409Z,20.10
2019-05-16T10:35:32.435Z,20.30
2019-05-16T10:38:03.407Z,20.60
2019-05-16T10:40:36.701Z,20.80
2019-05-16T10:43:07.564Z,21.20
2019-05-16T10:45:39.261Z,21.80
2019-05-16T10:48:10.242Z,22.10
2019-05-16T10:50:41.294Z,22.30
2019-05-16T10:53:32.459Z,22.20
2019-05-16T10:55:47.625Z,21.30
2019-05-16T10:58:32.878Z,20.50
2019-05-16T11:01:15.104Z,20.30
2019-05-16T11:03:23.678Z,20.00
2019-05-16T11:06:02.838Z,20.10
2019-05-16T11:08:27.409Z,20.40
2019-05-16T11:10:58.420Z,20.20
2019-05-16T11:13:29.407Z,20.40
2019-05-16T11:16:00.389Z,20.50
2019-05-16T11:18:31.373Z,20.80
2019-05-16T11:21:02.359Z,20.60
2019-05-16T11:23:33.338Z,20.30
2019-05-16T11:26:04.323Z,19.80
2019-05-16T11:28:36.876Z,19.70
2019-05-16T11:31:27.451Z,19.40
2019-05-16T11:33:58.432Z,19.30
2019-05-16T11:36:29.371Z,19.10
2019-05-16T11:39:01.942Z,19.20
2019-05-16T11:41:33.584Z,19.10
2019-05-16T11:44:06.664Z,18.50
2019-05-16T11:46:37.999Z,18.50
2019-05-16T11:49:08.976Z,18.30
2019-05-16T11:51:39.967Z,18.40
2019-05-16T11:54:10.969Z,18.50
2019-05-16T11:56:41.943Z,17.90
2019-05-16T11:59:12.891Z,17.70
2019-05-16T12:01:43.868Z,17.70
2019-05-16T12:04:17.169Z,17.80
2019-05-16T12:06:47.486Z,17.70
2019-05-16T12:09:18.446Z,17.80
2019-05-16T12:12:03.158Z,17.60
2019-05-16T12:14:22.071Z,17.50
2019-05-16T12:16:53.134Z,17.80
2019-05-16T12:19:24.194Z,17.50
2019-05-16T12:21:57.087Z,17.50
2019-05-16T12:24:36.367Z,17.50
2019-05-16T12:27:00.890Z,17.20
2019-05-16T12:29:31.993Z,17.40
2019-05-16T12:32:03.387Z,16.90
2019-05-16T12:34:36.751Z,16.40
2019-05-16T12:37:07.566Z,16.40
2019-05-16T12:39:38.795Z,16.40
2019-05-16T12:42:09.781Z,16.20
2019-05-16T12:44:40.758Z,16.30
2019-05-16T12:47:11.721Z,16.20
2019-05-16T12:49:42.683Z,16.20
2019-05-16T12:52:13.630Z,16.10
2019-05-16T12:54:47.353Z,15.90
2019-05-16T12:57:18.210Z,15.50
2019-05-16T12:59:52.446Z,15.50
2019-05-16T13:02:22.128Z,15.40
2019-05-16T13:04:53.125Z,15.30
2019-05-16T13:07:24.080Z,15.20
2019-05-16T13:09:55.058Z,15.10
2019-05-16T13:12:27.079Z,15.00
2019-05-16T13:14:58.372Z,14.50
2019-05-16T13:17:29.311Z,14.10
2019-05-16T13:20:00.281Z,13.90
2019-05-16T13:22:32.545Z,13.70
2019-05-16T13:25:03.628Z,13.60
2019-05-16T13:27:37.020Z,13.90
2019-05-16T13:30:11.938Z,13.90
2019-05-16T13:32:42.987Z,13.80
2019-05-16T13:35:16.971Z,13.90
2019-05-16T13:37:48.012Z,13.70
2019-05-16T13:40:20.233Z,13.80
2019-05-16T13:42:51.216Z,14.00
2019-05-16T13:45:22.785Z,14.00
2019-05-16T13:47:53.840Z,14.10
2019-05-16T13:50:27.111Z,13.90
2019-05-16T13:52:58.520Z,13.80
2019-05-16T13:55:30.668Z,13.80
2019-05-16T13:58:01.769Z,13.70
2019-05-16T14:00:32.809Z,13.80
2019-05-16T14:03:03.796Z,14.00
2019-05-16T14:05:34.729Z,14.30
2019-05-16T14:08:06.835Z,14.20
2019-05-16T14:10:38.149Z,14.40
2019-05-16T14:13:09.117Z,14.30
2019-05-16T14:15:41.006Z,14.20
2019-05-16T14:18:12.055Z,14.20
2019-05-16T14:20:42.993Z,14.10
2019-05-16T14:23:13.986Z,14.20
2019-05-16T14:25:48.063Z,14.00
2019-05-16T14:28:17.855Z,13.90
2019-05-16T14:30:48.991Z,13.80
2019-05-16T14:33:20.967Z,13.90
2019-05-16T14:35:52.198Z,14.00
2019-05-16T14:38:23.187Z,13.90
2019-05-16T14:40:54.187Z,13.90
2019-05-16T14:43:27.236Z,14.00
2019-05-16T14:45:58.204Z,14.00
2019-05-16T14:48:29.328Z,14.30
2019-05-16T14:51:00.323Z,14.40
2019-05-16T14:53:31.304Z,14.40
2019-05-16T14:56:02.348Z,14.50
2019-05-16T14:58:33.332Z,14.60
2019-05-16T15:01:07.167Z,14.40
2019-05-16T15:03:37.213Z,14.30
2019-05-16T15:06:09.003Z,14.10
2019-05-16T15:08:40.115Z,13.90
2019-05-16T15:11:14.040Z,13.90
2019-05-16T15:13:43.750Z,14.00
2019-05-16T15:16:16.857Z,14.00
2019-05-16T15:18:47.692Z,14.00
2019-05-16T15:21:18.861Z,14.00
2019-05-16T15:23:49.869Z,14.10
2019-05-16T15:26:20.873Z,14.00
2019-05-16T15:28:51.837Z,13.70
2019-05-16T15:31:22.805Z,13.80
2019-05-16T15:33:53.759Z,13.70
2019-05-16T15:36:26.946Z,13.50
2019-05-16T15:38:59.506Z,13.50
2019-05-16T15:41:30.067Z,13.40
2019-05-16T15:44:01.013Z,13.40
2019-05-16T15:46:32.099Z,13.50
2019-05-16T15:49:09.038Z,13.40
2019-05-16T15:51:36.994Z,13.40
2019-05-16T15:54:08.272Z,13.40
2019-05-16T15:56:41.818Z,13.20
2019-05-16T15:59:12.806Z,13.20
2019-05-16T16:01:43.801Z,13.20
2019-05-16T16:04:17.402Z,13.20
2019-05-16T16:06:47.674Z,13.00
2019-05-16T16:09:18.665Z,12.90
2019-05-16T16:11:49.615Z,12.80
2019-05-16T16:14:20.719Z,12.80
2019-05-16T16:16:51.731Z,12.60
2019-05-16T16:19:26.470Z,12.50
2019-05-16T16:21:58.027Z,12.40
2019-05-16T16:24:30.092Z,12.40
2019-05-16T16:27:01.090Z,12.40
2019-05-16T16:29:33.221Z,12.50
2019-05-16T16:32:06.339Z,12.50
2019-05-16T16:34:37.132Z,12.40
2019-05-16T16:37:08.151Z,12.40
2019-05-16T16:39:40.286Z,12.20
2019-05-16T16:42:11.300Z,12.20
2019-05-16T16:44:42.670Z,12.10
2019-05-16T16:47:13.658Z,12.20
2019-05-16T16:49:44.654Z,12.10
2019-05-16T16:52:16.752Z,12.00
2019-05-16T16:54:48.070Z,11.90
2019-05-16T16:57:19.079Z,11.90
2019-05-16T16:59:50.066Z,11.90
2019-05-16T17:02:21.120Z,11.80
2019-05-16T17:04:52.225Z,11.80
2019-05-16T17:07:23.254Z,11.70
2019-05-16T17:09:56.260Z,11.40
2019-05-16T17:12:26.888Z,11.40
2019-05-16T17:14:57.833Z,11.40
2019-05-16T17:17:28.813Z,11.40
2019-05-16T17:19:59.763Z,11.40
2019-05-16T17:22:30.839Z,11.30
2019-05-16T17:25:01.797Z,11.30
2019-05-16T17:27:32.840Z,11.30
2019-05-16T17:30:06.907Z,11.10
2019-05-16T17:32:38.874Z,11.10
2019-05-16T17:35:11.587Z,11.10
2019-05-16T17:37:42.578Z,11.00
2019-05-16T17:40:17.572Z,11.00
2019-05-16T17:42:48.345Z,10.90
2019-05-16T17:45:21.100Z,10.70
2019-05-16T17:47:52.188Z,10.70
2019-05-16T17:50:26.190Z,10.60
2019-05-16T17:52:57.821Z,10.50
2019-05-16T17:55:29.990Z,10.50
2019-05-16T17:58:00.970Z,10.60
2019-05-16T18:00:32.094Z,10.50
2019-05-16T18:03:03.168Z,10.50
2019-05-16T18:05:36.811Z,10.50
2019-05-16T18:08:07.662Z,10.50
2019-05-16T18:10:39.008Z,10.50
2019-05-16T18:13:09.959Z,10.50
2019-05-16T18:15:40.937Z,10.50
2019-05-16T18:18:11.888Z,10.40
2019-05-16T18:20:54.941Z,10.40
2019-05-16T18:23:16.475Z,10.30
2019-05-16T18:25:47.579Z,10.30
2019-05-16T18:28:18.520Z,10.30
2019-05-16T18:30:49.508Z,10.30
2019-05-16T18:33:21.508Z,10.10
2019-05-16T18:35:52.509Z,10.10
2019-05-16T18:38:23.457Z,10.00
2019-05-16T18:40:56.532Z,10.10
2019-05-16T18:43:27.306Z,10.10
2019-05-16T18:45:59.391Z,10.00
2019-05-16T18:48:30.337Z,10.00
2019-05-16T18:51:01.317Z,10.00
2019-05-16T18:53:32.274Z,9.90
2019-05-16T18:56:03.263Z,10.00
2019-05-16T18:58:34.267Z,10.10
2019-05-16T19:01:06.679Z,10.10
2019-05-16T19:03:37.881Z,10.00
2019-05-16T19:06:08.941Z,9.90
2019-05-16T19:08:39.881Z,9.90
2019-05-16T19:11:10.851Z,9.80
2019-05-16T19:13:41.799Z,9.80
2019-05-16T19:16:12.788Z,9.80
2019-05-16T19:18:43.782Z,9.80
2019-05-16T19:21:16.712Z,9.80
2019-05-16T19:23:47.401Z,9.90
2019-05-16T19:26:18.475Z,9.80
2019-05-16T19:28:49.412Z,9.70
2019-05-16T19:31:20.408Z,9.70
2019-05-16T19:33:51.396Z,9.70
2019-05-16T19:36:22.574Z,9.60
2019-05-16T19:38:57.599Z,9.50
2019-05-16T19:41:28.749Z,9.50
2019-05-16T19:43:59.683Z,9.60
2019-05-16T19:46:30.683Z,9.50
2019-05-16T19:49:01.621Z,9.50
2019-05-16T19:51:32.680Z,9.60
2019-05-16T19:54:03.655Z,9.50
2019-05-16T19:56:34.594Z,9.50
2019-05-16T19:59:06.653Z,9.60
2019-05-16T20:01:37.905Z,9.70
2019-05-16T20:04:09.008Z,9.60
2019-05-16T20:06:39.951Z,9.50
2019-05-16T20:09:11.051Z,9.40
2019-05-16T20:11:41.978Z,9.30
2019-05-16T20:14:12.955Z,9.30
2019-05-16T20:16:43.903Z,9.20
2019-05-16T20:19:14.877Z,9.20
2019-05-16T20:21:47.629Z,9.30
2019-05-16T20:24:18.744Z,9.40
2019-05-16T20:26:49.715Z,9.40
2019-05-16T20:29:20.660Z,9.30
2019-05-16T20:31:51.700Z,9.50
2019-05-16T20:34:22.654Z,9.40
2019-05-16T20:36:53.628Z,9.40
2019-05-16T20:39:26.695Z,9.30
2019-05-16T20:41:59.712Z,9.30
2019-05-16T20:44:30.022Z,9.20
2019-05-16T20:47:01.005Z,9.20
2019-05-16T20:49:31.943Z,9.20
2019-05-16T20:52:02.926Z,9.20
2019-05-16T20:54:33.953Z,9.10
2019-05-16T20:57:06.775Z,9.00
2019-05-16T20:59:37.691Z,9.00
2019-05-16T21:02:08.776Z,9.00
2019-05-16T21:04:39.748Z,9.10
2019-05-16T21:07:11.390Z,9.20
2019-05-16T21:09:42.467Z,9.20
2019-05-16T21:12:13.442Z,9.20
2019-05-16T21:14:44.396Z,9.20
2019-05-16T21:17:17.426Z,9.20
2019-05-16T21:19:48.431Z,9.20
2019-05-16T21:22:19.581Z,9.10
2019-05-16T21:24:50.741Z,9.00
2019-05-16T21:27:21.743Z,9.10
2019-05-16T21:29:52.715Z,9.10
2019-05-16T21:32:23.652Z,9.20
2019-05-16T21:34:56.580Z,9.10
2019-05-16T21:37:27.270Z,9.00
2019-05-16T21:39:59.769Z,8.90
2019-05-16T21:42:30.982Z,9.10
2019-05-16T21:45:02.021Z,9.10
2019-05-16T21:47:36.766Z,9.20
2019-05-16T21:50:10.154Z,9.10
2019-05-16T21:52:41.166Z,9.10
2019-05-16T21:55:12.544Z,9.10
2019-05-16T21:57:43.575Z,9.20
2019-05-16T22:00:43.898Z,9.20
2019-05-16T22:03:15.569Z,9.10
2019-05-16T22:05:46.684Z,8.80
2019-05-16T22:08:17.701Z,8.60
2019-05-16T22:10:49.660Z,8.40
2019-05-16T22:13:20.957Z,8.30
2019-05-16T22:15:51.968Z,8.10
2019-05-16T22:18:22.951Z,7.90
2019-05-16T22:20:56.998Z,7.80
2019-05-16T22:23:29.217Z,7.80
2019-05-16T22:26:00.177Z,7.70
2019-05-16T22:28:31.346Z,7.60
2019-05-16T22:31:02.292Z,7.50
2019-05-16T22:33:33.328Z,7.50
2019-05-16T22:36:06.831Z,7.30
2019-05-16T22:38:36.961Z,7.20
2019-05-16T22:41:10.587Z,7.20
2019-05-16T22:43:40.596Z,7.10
2019-05-16T22:46:11.645Z,7.00
2019-05-16T22:48:42.625Z,6.90
2019-05-16T22:51:13.620Z,6.80
2019-05-16T22:53:44.569Z,6.80
2019-05-16T22:56:17.383Z,6.70
2019-05-16T22:58:48.535Z,6.60
2019-05-16T23:01:19.556Z,6.50
2019-05-16T23:03:50.533Z,6.40
2019-05-16T23:06:21.553Z,6.30
2019-05-16T23:08:52.501Z,6.50
2019-05-16T23:11:23.478Z,6.40
2019-05-16T23:13:56.724Z,6.30
2019-05-16T23:16:27.303Z,6.30
2019-05-16T23:18:58.244Z,6.30
2019-05-16T23:21:29.228Z,6.10
2019-05-16T23:24:00.179Z,6.00
2019-05-16T23:26:31.263Z,5.90
2019-05-16T23:29:02.242Z,5.90
2019-05-16T23:31:33.188Z,5.90
2019-05-16T23:34:04.170Z,5.80
2019-05-16T23:36:37.036Z,5.70
2019-05-16T23:39:09.101Z,5.70
2019-05-16T23:41:40.056Z,5.70
2019-05-16T23:44:11.041Z,5.60
2019-05-16T23:46:41.988Z,5.50
2019-05-16T23:49:12.977Z,5.40
2019-05-16T23:51:43.948Z,5.30
2019-05-16T23:54:17.083Z,5.30
2019-05-16T23:56:47.563Z,5.20
2019-05-16T23:59:18.538Z,5.10
